sensor_id;sensor_type;location;lat;lon;timestamp;temperature;humidity
55777;DHT22;54079;44.540;18.784;2023-09-07T00:00:15;18.10;99.90
55777;DHT22;54079;44.540;18.784;2023-09-07T00:02:41;18.20;99.90
55777;DHT22;54079;44.540;18.784;2023-09-07T00:05:08;18.20;99.90
55777;DHT22;54079;44.540;18.784;2023-09-07T00:07:35;18.00;99.90
55777;DHT22;54079;44.540;18.784;2023-09-07T00:10:01;18.00;99.90
55777;DHT22;54079;44.540;18.784;2023-09-07T00:12:27;18.10;99.90
55777;DHT22;54079;44.540;18.784;2023-09-07T00:14:54;18.20;99.90
55777;DHT22;54079;44.540;18.784;2023-09-07T00:17:21;18.20;99.90
55777;DHT22;54079;44.540;18.784;2023-09-07T00:19:47;18.30;99.90
55777;DHT22;54079;44.540;18.784;2023-09-07T00:22:15;18.40;98.70
55777;DHT22;54079;44.540;18.784;2023-09-07T00:24:42;18.50;97.90
55777;DHT22;54079;44.540;18.784;2023-09-07T00:27:08;18.60;98.90
55777;DHT22;54079;44.540;18.784;2023-09-07T00:29:35;18.50;99.80
55777;DHT22;54079;44.540;18.784;2023-09-07T00:32:01;18.40;99.20
55777;DHT22;54079;44.540;18.784;2023-09-07T00:34:27;18.30;99.60
55777;DHT22;54079;44.540;18.784;2023-09-07T00:36:53;18.30;99.60
55777;DHT22;54079;44.540;18.784;2023-09-07T00:39:19;18.30;99.90
55777;DHT22;54079;44.540;18.784;2023-09-07T00:41:45;18.20;99.90
55777;DHT22;54079;44.540;18.784;2023-09-07T00:44:11;18.00;99.90
55777;DHT22;54079;44.540;18.784;2023-09-07T00:46:37;17.90;99.90
55777;DHT22;54079;44.540;18.784;2023-09-07T00:49:03;17.80;99.90
55777;DHT22;54079;44.540;18.784;2023-09-07T00:51:30;17.80;99.90
55777;DHT22;54079;44.540;18.784;2023-09-07T00:53:57;17.80;99.90
55777;DHT22;54079;44.540;18.784;2023-09-07T00:56:28;17.80;99.90
55777;DHT22;54079;44.540;18.784;2023-09-07T00:58:54;17.80;99.90
55777;DHT22;54079;44.540;18.784;2023-09-07T01:01:22;17.80;99.90
55777;DHT22;54079;44.540;18.784;2023-09-07T01:03:50;17.70;99.90
55777;DHT22;54079;44.540;18.784;2023-09-07T01:06:20;17.70;99.90
55777;DHT22;54079;44.540;18.784;2023-09-07T01:08:51;17.60;99.90
55777;DHT22;54079;44.540;18.784;2023-09-07T01:11:22;17.50;99.90
55777;DHT22;54079;44.540;18.784;2023-09-07T01:13:52;17.60;99.90
55777;DHT22;54079;44.540;18.784;2023-09-07T01:16:20;17.60;99.90
55777;DHT22;54079;44.540;18.784;2023-09-07T01:18:47;17.60;99.90
55777;DHT22;54079;44.540;18.784;2023-09-07T01:21:13;17.60;99.90
55777;DHT22;54079;44.540;18.784;2023-09-07T01:23:44;17.60;99.90
55777;DHT22;54079;44.540;18.784;2023-09-07T01:26:10;17.50;99.90
55777;DHT22;54079;44.540;18.784;2023-09-07T01:28:37;17.50;99.90
55777;DHT22;54079;44.540;18.784;2023-09-07T01:31:04;17.50;99.90
55777;DHT22;54079;44.540;18.784;2023-09-07T01:33:30;17.50;99.90
55777;DHT22;54079;44.540;18.784;2023-09-07T01:35:56;17.40;99.90
55777;DHT22;54079;44.540;18.784;2023-09-07T01:38:22;17.40;99.90
55777;DHT22;54079;44.540;18.784;2023-09-07T01:40:48;17.40;99.90
55777;DHT22;54079;44.540;18.784;2023-09-07T01:43:14;17.40;99.90
55777;DHT22;54079;44.540;18.784;2023-09-07T01:45:40;17.40;99.90
55777;DHT22;54079;44.540;18.784;2023-09-07T01:48:09;17.20;99.90
55777;DHT22;54079;44.540;18.784;2023-09-07T01:50:36;17.20;99.90
55777;DHT22;54079;44.540;18.784;2023-09-07T01:53:02;17.20;99.90
55777;DHT22;54079;44.540;18.784;2023-09-07T01:55:34;17.10;99.90
55777;DHT22;54079;44.540;18.784;2023-09-07T01:58:00;17.10;99.90
55777;DHT22;54079;44.540;18.784;2023-09-07T02:00:26;17.00;99.90
55777;DHT22;54079;44.540;18.784;2023-09-07T02:02:52;17.10;99.90
55777;DHT22;54079;44.540;18.784;2023-09-07T02:05:18;17.00;99.90
55777;DHT22;54079;44.540;18.784;2023-09-07T02:07:43;17.00;99.90
55777;DHT22;54079;44.540;18.784;2023-09-07T02:10:10;17.00;99.90
55777;DHT22;54079;44.540;18.784;2023-09-07T02:12:36;16.90;99.90
55777;DHT22;54079;44.540;18.784;2023-09-07T02:15:03;17.00;99.90
55777;DHT22;54079;44.540;18.784;2023-09-07T02:17:30;16.90;99.90
55777;DHT22;54079;44.540;18.784;2023-09-07T02:19:56;17.00;99.90
55777;DHT22;54079;44.540;18.784;2023-09-07T02:22:22;16.80;99.90
55777;DHT22;54079;44.540;18.784;2023-09-07T02:24:48;16.80;99.90
55777;DHT22;54079;44.540;18.784;2023-09-07T02:27:14;16.80;99.90
55777;DHT22;54079;44.540;18.784;2023-09-07T02:29:40;16.80;99.90
55777;DHT22;54079;44.540;18.784;2023-09-07T02:32:06;16.80;99.90
55777;DHT22;54079;44.540;18.784;2023-09-07T02:34:32;16.80;99.90
55777;DHT22;54079;44.540;18.784;2023-09-07T02:37:02;16.80;99.90
55777;DHT22;54079;44.540;18.784;2023-09-07T02:39:29;16.70;99.90
55777;DHT22;54079;44.540;18.784;2023-09-07T02:41:54;16.60;99.90
55777;DHT22;54079;44.540;18.784;2023-09-07T02:44:20;16.60;99.90
55777;DHT22;54079;44.540;18.784;2023-09-07T02:46:46;16.60;99.90
55777;DHT22;54079;44.540;18.784;2023-09-07T02:49:12;16.40;99.90
55777;DHT22;54079;44.540;18.784;2023-09-07T02:51:38;16.50;99.90
55777;DHT22;54079;44.540;18.784;2023-09-07T02:54:05;16.60;99.90
55777;DHT22;54079;44.540;18.784;2023-09-07T02:56:31;16.50;99.90
55777;DHT22;54079;44.540;18.784;2023-09-07T02:58:57;16.50;99.90
55777;DHT22;54079;44.540;18.784;2023-09-07T03:01:23;16.60;99.90
55777;DHT22;54079;44.540;18.784;2023-09-07T03:03:49;16.50;99.90
55777;DHT22;54079;44.540;18.784;2023-09-07T03:06:15;16.60;99.90
55777;DHT22;54079;44.540;18.784;2023-09-07T03:08:44;16.60;99.90
55777;DHT22;54079;44.540;18.784;2023-09-07T03:11:11;16.50;99.90
55777;DHT22;54079;44.540;18.784;2023-09-07T03:13:37;16.40;99.90
55777;DHT22;54079;44.540;18.784;2023-09-07T03:16:04;16.30;99.90
55777;DHT22;54079;44.540;18.784;2023-09-07T03:18:30;16.30;99.90
55777;DHT22;54079;44.540;18.784;2023-09-07T03:21:00;16.30;99.90
55777;DHT22;54079;44.540;18.784;2023-09-07T03:23:27;16.40;99.90
55777;DHT22;54079;44.540;18.784;2023-09-07T03:25:53;16.30;99.90
55777;DHT22;54079;44.540;18.784;2023-09-07T03:28:19;16.20;99.90
55777;DHT22;54079;44.540;18.784;2023-09-07T03:30:45;16.20;99.90
55777;DHT22;54079;44.540;18.784;2023-09-07T03:33:11;16.30;99.90
55777;DHT22;54079;44.540;18.784;2023-09-07T03:35:37;16.30;99.90
55777;DHT22;54079;44.540;18.784;2023-09-07T03:38:03;16.30;99.90
55777;DHT22;54079;44.540;18.784;2023-09-07T03:40:29;16.20;99.90
55777;DHT22;54079;44.540;18.784;2023-09-07T03:42:55;16.30;99.90
55777;DHT22;54079;44.540;18.784;2023-09-07T03:45:21;16.30;99.90
55777;DHT22;54079;44.540;18.784;2023-09-07T03:47:47;16.10;99.90
55777;DHT22;54079;44.540;18.784;2023-09-07T03:50:13;16.10;99.90
55777;DHT22;54079;44.540;18.784;2023-09-07T03:52:39;16.20;99.90
55777;DHT22;54079;44.540;18.784;2023-09-07T03:55:06;16.00;99.90
55777;DHT22;54079;44.540;18.784;2023-09-07T03:57:32;16.10;99.90
55777;DHT22;54079;44.540;18.784;2023-09-07T03:59:59;16.10;99.90
55777;DHT22;54079;44.540;18.784;2023-09-07T04:02:25;16.20;99.90
55777;DHT22;54079;44.540;18.784;2023-09-07T04:04:52;16.20;99.90
55777;DHT22;54079;44.540;18.784;2023-09-07T04:07:18;16.20;99.90
55777;DHT22;54079;44.540;18.784;2023-09-07T04:09:45;16.30;99.90
55777;DHT22;54079;44.540;18.784;2023-09-07T04:12:11;16.30;99.90
55777;DHT22;54079;44.540;18.784;2023-09-07T04:14:37;16.30;99.90
55777;DHT22;54079;44.540;18.784;2023-09-07T04:17:04;16.00;99.90
55777;DHT22;54079;44.540;18.784;2023-09-07T04:19:30;15.90;99.90
55777;DHT22;54079;44.540;18.784;2023-09-07T04:22:00;15.90;99.90
55777;DHT22;54079;44.540;18.784;2023-09-07T04:24:26;15.90;99.90
55777;DHT22;54079;44.540;18.784;2023-09-07T04:26:59;16.10;99.90
55777;DHT22;54079;44.540;18.784;2023-09-07T04:29:26;16.00;99.90
55777;DHT22;54079;44.540;18.784;2023-09-07T04:31:52;15.90;99.90
55777;DHT22;54079;44.540;18.784;2023-09-07T04:34:18;16.00;99.90
55777;DHT22;54079;44.540;18.784;2023-09-07T04:36:44;16.20;99.90
55777;DHT22;54079;44.540;18.784;2023-09-07T04:39:10;16.30;99.90
55777;DHT22;54079;44.540;18.784;2023-09-07T04:41:36;16.40;99.90
55777;DHT22;54079;44.540;18.784;2023-09-07T04:44:02;16.50;99.90
55777;DHT22;54079;44.540;18.784;2023-09-07T04:46:28;16.60;99.90
55777;DHT22;54079;44.540;18.784;2023-09-07T04:48:54;16.70;99.90
55777;DHT22;54079;44.540;18.784;2023-09-07T04:51:20;16.80;99.90
55777;DHT22;54079;44.540;18.784;2023-09-07T04:53:47;16.80;99.90
55777;DHT22;54079;44.540;18.784;2023-09-07T04:56:13;16.80;99.90
55777;DHT22;54079;44.540;18.784;2023-09-07T04:58:39;16.80;99.90
55777;DHT22;54079;44.540;18.784;2023-09-07T05:01:08;17.00;99.90
55777;DHT22;54079;44.540;18.784;2023-09-07T05:03:35;17.10;99.90
55777;DHT22;54079;44.540;18.784;2023-09-07T05:06:02;17.30;99.90
55777;DHT22;54079;44.540;18.784;2023-09-07T05:08:31;17.50;99.90
55777;DHT22;54079;44.540;18.784;2023-09-07T05:10:59;17.70;99.90
55777;DHT22;54079;44.540;18.784;2023-09-07T05:13:26;17.80;99.90
55777;DHT22;54079;44.540;18.784;2023-09-07T05:15:53;17.90;99.90
55777;DHT22;54079;44.540;18.784;2023-09-07T05:18:20;18.10;99.90
55777;DHT22;54079;44.540;18.784;2023-09-07T05:20:46;18.10;99.90
55777;DHT22;54079;44.540;18.784;2023-09-07T05:23:23;18.20;99.90
55777;DHT22;54079;44.540;18.784;2023-09-07T05:25:52;18.20;99.90
55777;DHT22;54079;44.540;18.784;2023-09-07T05:28:18;18.30;99.90
55777;DHT22;54079;44.540;18.784;2023-09-07T05:30:45;18.50;99.90
55777;DHT22;54079;44.540;18.784;2023-09-07T05:33:12;18.70;99.90
55777;DHT22;54079;44.540;18.784;2023-09-07T05:35:40;18.90;99.90
55777;DHT22;54079;44.540;18.784;2023-09-07T05:38:07;19.00;99.90
55777;DHT22;54079;44.540;18.784;2023-09-07T05:40:38;19.20;99.90
55777;DHT22;54079;44.540;18.784;2023-09-07T05:43:05;19.30;99.90
55777;DHT22;54079;44.540;18.784;2023-09-07T05:45:33;19.50;99.90
55777;DHT22;54079;44.540;18.784;2023-09-07T05:47:59;19.70;99.90
55777;DHT22;54079;44.540;18.784;2023-09-07T05:50:26;19.60;99.90
55777;DHT22;54079;44.540;18.784;2023-09-07T05:52:52;19.80;99.90
55777;DHT22;54079;44.540;18.784;2023-09-07T05:55:18;20.00;99.90
55777;DHT22;54079;44.540;18.784;2023-09-07T05:57:44;20.10;99.90
55777;DHT22;54079;44.540;18.784;2023-09-07T06:00:10;20.20;99.90
55777;DHT22;54079;44.540;18.784;2023-09-07T06:02:36;20.10;99.90
55777;DHT22;54079;44.540;18.784;2023-09-07T06:05:02;20.30;99.90
55777;DHT22;54079;44.540;18.784;2023-09-07T06:07:28;20.50;99.90
55777;DHT22;54079;44.540;18.784;2023-09-07T06:09:54;20.80;99.10
55777;DHT22;54079;44.540;18.784;2023-09-07T06:12:20;21.30;98.10
55777;DHT22;54079;44.540;18.784;2023-09-07T06:14:46;21.50;97.20
55777;DHT22;54079;44.540;18.784;2023-09-07T06:17:12;23.80;92.90
55777;DHT22;54079;44.540;18.784;2023-09-07T06:19:38;27.50;83.30
55777;DHT22;54079;44.540;18.784;2023-09-07T06:22:05;29.80;73.80
55777;DHT22;54079;44.540;18.784;2023-09-07T06:24:31;32.10;66.70
55777;DHT22;54079;44.540;18.784;2023-09-07T06:26:57;33.50;62.70
55777;DHT22;54079;44.540;18.784;2023-09-07T06:29:23;35.10;58.90
55777;DHT22;54079;44.540;18.784;2023-09-07T06:31:49;36.30;56.10
55777;DHT22;54079;44.540;18.784;2023-09-07T06:34:16;37.40;53.40
55777;DHT22;54079;44.540;18.784;2023-09-07T06:36:42;38.30;51.70
55777;DHT22;54079;44.540;18.784;2023-09-07T06:39:08;39.40;50.10
55777;DHT22;54079;44.540;18.784;2023-09-07T06:41:34;40.20;48.30
55777;DHT22;54079;44.540;18.784;2023-09-07T06:44:01;40.90;47.60
55777;DHT22;54079;44.540;18.784;2023-09-07T06:46:27;41.40;45.80
55777;DHT22;54079;44.540;18.784;2023-09-07T06:48:53;41.60;45.70
55777;DHT22;54079;44.540;18.784;2023-09-07T06:51:19;42.20;45.50
55777;DHT22;54079;44.540;18.784;2023-09-07T06:53:44;42.60;44.50
55777;DHT22;54079;44.540;18.784;2023-09-07T06:56:10;43.30;44.20
55777;DHT22;54079;44.540;18.784;2023-09-07T06:58:37;43.90;43.50
55777;DHT22;54079;44.540;18.784;2023-09-07T07:01:03;44.00;43.00
55777;DHT22;54079;44.540;18.784;2023-09-07T07:03:30;44.50;42.60
55777;DHT22;54079;44.540;18.784;2023-09-07T07:05:57;44.90;42.20
55777;DHT22;54079;44.540;18.784;2023-09-07T07:08:23;45.10;42.30
55777;DHT22;54079;44.540;18.784;2023-09-07T07:10:49;45.40;41.80
55777;DHT22;54079;44.540;18.784;2023-09-07T07:13:15;46.10;42.10
55777;DHT22;54079;44.540;18.784;2023-09-07T07:15:42;46.30;41.40
55777;DHT22;54079;44.540;18.784;2023-09-07T07:18:08;46.50;41.30
55777;DHT22;54079;44.540;18.784;2023-09-07T07:20:42;47.20;41.20
55777;DHT22;54079;44.540;18.784;2023-09-07T07:23:10;47.90;40.40
55777;DHT22;54079;44.540;18.784;2023-09-07T07:25:36;47.70;40.30
55777;DHT22;54079;44.540;18.784;2023-09-07T07:28:03;48.20;39.90
55777;DHT22;54079;44.540;18.784;2023-09-07T07:30:40;48.60;39.20
55777;DHT22;54079;44.540;18.784;2023-09-07T07:33:06;48.70;39.10
55777;DHT22;54079;44.540;18.784;2023-09-07T07:35:33;49.20;39.00
55777;DHT22;54079;44.540;18.784;2023-09-07T07:38:01;49.50;38.70
55777;DHT22;54079;44.540;18.784;2023-09-07T07:40:27;49.50;39.10
55777;DHT22;54079;44.540;18.784;2023-09-07T07:42:55;50.00;38.80
55777;DHT22;54079;44.540;18.784;2023-09-07T07:45:21;50.20;38.80
55777;DHT22;54079;44.540;18.784;2023-09-07T07:47:51;50.50;38.30
55777;DHT22;54079;44.540;18.784;2023-09-07T07:50:18;50.90;38.10
55777;DHT22;54079;44.540;18.784;2023-09-07T07:52:44;51.20;37.90
55777;DHT22;54079;44.540;18.784;2023-09-07T07:55:11;51.60;37.70
55777;DHT22;54079;44.540;18.784;2023-09-07T07:57:38;51.90;37.40
55777;DHT22;54079;44.540;18.784;2023-09-07T08:00:05;52.10;37.30
55777;DHT22;54079;44.540;18.784;2023-09-07T08:02:32;52.40;37.70
55777;DHT22;54079;44.540;18.784;2023-09-07T08:04:58;52.00;37.30
55777;DHT22;54079;44.540;18.784;2023-09-07T08:07:24;52.20;36.80
55777;DHT22;54079;44.540;18.784;2023-09-07T08:09:50;52.80;36.90
55777;DHT22;54079;44.540;18.784;2023-09-07T08:12:17;52.80;36.40
55777;DHT22;54079;44.540;18.784;2023-09-07T08:14:43;52.50;36.30
55777;DHT22;54079;44.540;18.784;2023-09-07T08:17:09;52.00;36.60
55777;DHT22;54079;44.540;18.784;2023-09-07T08:19:35;52.80;36.10
55777;DHT22;54079;44.540;18.784;2023-09-07T08:22:01;53.00;36.20
55777;DHT22;54079;44.540;18.784;2023-09-07T08:24:29;52.60;35.30
55777;DHT22;54079;44.540;18.784;2023-09-07T08:26:55;53.00;36.40
55777;DHT22;54079;44.540;18.784;2023-09-07T08:29:23;52.20;35.80
55777;DHT22;54079;44.540;18.784;2023-09-07T08:31:53;52.80;36.00
55777;DHT22;54079;44.540;18.784;2023-09-07T08:34:19;53.20;35.90
55777;DHT22;54079;44.540;18.784;2023-09-07T08:36:46;52.40;35.00
55777;DHT22;54079;44.540;18.784;2023-09-07T08:39:13;51.00;36.30
55777;DHT22;54079;44.540;18.784;2023-09-07T08:41:43;52.40;35.70
55777;DHT22;54079;44.540;18.784;2023-09-07T08:44:11;53.00;35.40
55777;DHT22;54079;44.540;18.784;2023-09-07T08:46:37;53.40;35.30
55777;DHT22;54079;44.540;18.784;2023-09-07T08:49:03;53.80;35.30
55777;DHT22;54079;44.540;18.784;2023-09-07T08:51:30;54.00;34.90
55777;DHT22;54079;44.540;18.784;2023-09-07T08:53:58;53.90;34.70
55777;DHT22;54079;44.540;18.784;2023-09-07T08:56:24;50.00;34.60
55777;DHT22;54079;44.540;18.784;2023-09-07T08:58:50;49.50;35.10
55777;DHT22;54079;44.540;18.784;2023-09-07T09:01:17;49.20;34.80
55777;DHT22;54079;44.540;18.784;2023-09-07T09:03:43;50.50;35.40
55777;DHT22;54079;44.540;18.784;2023-09-07T09:06:11;49.30;34.50
55777;DHT22;54079;44.540;18.784;2023-09-07T09:08:50;47.60;34.80
55777;DHT22;54079;44.540;18.784;2023-09-07T09:11:16;45.70;35.80
55777;DHT22;54079;44.540;18.784;2023-09-07T09:13:43;46.00;36.30
55777;DHT22;54079;44.540;18.784;2023-09-07T09:16:10;44.30;35.50
55777;DHT22;54079;44.540;18.784;2023-09-07T09:18:36;43.20;37.70
55777;DHT22;54079;44.540;18.784;2023-09-07T09:21:03;38.10;39.50
55777;DHT22;54079;44.540;18.784;2023-09-07T09:23:37;35.30;41.50
55777;DHT22;54079;44.540;18.784;2023-09-07T09:26:03;33.40;43.10
55777;DHT22;54079;44.540;18.784;2023-09-07T09:28:34;32.30;45.60
55777;DHT22;54079;44.540;18.784;2023-09-07T09:31:01;31.70;45.70
55777;DHT22;54079;44.540;18.784;2023-09-07T09:33:31;30.90;47.10
55777;DHT22;54079;44.540;18.784;2023-09-07T09:35:58;30.10;47.40
55777;DHT22;54079;44.540;18.784;2023-09-07T09:38:23;29.90;47.60
55777;DHT22;54079;44.540;18.784;2023-09-07T09:40:51;29.20;48.80
55777;DHT22;54079;44.540;18.784;2023-09-07T09:43:20;28.70;49.70
55777;DHT22;54079;44.540;18.784;2023-09-07T09:45:46;28.60;50.00
55777;DHT22;54079;44.540;18.784;2023-09-07T09:48:15;28.70;49.40
55777;DHT22;54079;44.540;18.784;2023-09-07T09:50:42;29.00;49.10
55777;DHT22;54079;44.540;18.784;2023-09-07T09:53:10;28.70;48.90
55777;DHT22;54079;44.540;18.784;2023-09-07T09:55:41;28.60;50.10
55777;DHT22;54079;44.540;18.784;2023-09-07T09:58:07;28.40;49.80
55777;DHT22;54079;44.540;18.784;2023-09-07T10:00:33;28.40;49.60
55777;DHT22;54079;44.540;18.784;2023-09-07T10:03:09;28.70;50.60
55777;DHT22;54079;44.540;18.784;2023-09-07T10:05:39;28.40;48.60
55777;DHT22;54079;44.540;18.784;2023-09-07T10:08:14;28.60;49.80
55777;DHT22;54079;44.540;18.784;2023-09-07T10:10:42;28.50;50.00
55777;DHT22;54079;44.540;18.784;2023-09-07T10:13:08;28.20;51.10
55777;DHT22;54079;44.540;18.784;2023-09-07T10:15:34;28.50;50.50
55777;DHT22;54079;44.540;18.784;2023-09-07T10:18:14;29.00;49.90
55777;DHT22;54079;44.540;18.784;2023-09-07T10:23:19;28.40;49.70
55777;DHT22;54079;44.540;18.784;2023-09-07T10:25:52;28.10;49.00
55777;DHT22;54079;44.540;18.784;2023-09-07T10:28:25;28.30;50.10
55777;DHT22;54079;44.540;18.784;2023-09-07T10:31:14;28.20;49.70
55777;DHT22;54079;44.540;18.784;2023-09-07T10:33:40;28.20;50.40
55777;DHT22;54079;44.540;18.784;2023-09-07T10:36:07;28.10;50.20
55777;DHT22;54079;44.540;18.784;2023-09-07T10:38:34;27.90;50.90
55777;DHT22;54079;44.540;18.784;2023-09-07T10:41:04;28.10;50.70
55777;DHT22;54079;44.540;18.784;2023-09-07T10:43:32;28.20;51.30
55777;DHT22;54079;44.540;18.784;2023-09-07T10:46:00;28.80;50.30
55777;DHT22;54079;44.540;18.784;2023-09-07T10:48:29;29.20;50.50
55777;DHT22;54079;44.540;18.784;2023-09-07T10:50:55;29.10;50.60
55777;DHT22;54079;44.540;18.784;2023-09-07T10:53:31;29.20;50.70
55777;DHT22;54079;44.540;18.784;2023-09-07T10:56:07;29.10;50.50
55777;DHT22;54079;44.540;18.784;2023-09-07T10:58:36;29.40;50.80
55777;DHT22;54079;44.540;18.784;2023-09-07T11:01:06;29.20;51.30
55777;DHT22;54079;44.540;18.784;2023-09-07T11:03:33;28.80;51.10
55777;DHT22;54079;44.540;18.784;2023-09-07T11:06:18;28.90;52.40
55777;DHT22;54079;44.540;18.784;2023-09-07T11:08:47;28.30;51.20
55777;DHT22;54079;44.540;18.784;2023-09-07T11:11:13;28.60;53.40
55777;DHT22;54079;44.540;18.784;2023-09-07T11:13:40;28.50;52.90
55777;DHT22;54079;44.540;18.784;2023-09-07T11:16:09;28.80;53.10
55777;DHT22;54079;44.540;18.784;2023-09-07T11:18:36;28.60;52.50
55777;DHT22;54079;44.540;18.784;2023-09-07T11:21:02;28.40;53.20
55777;DHT22;54079;44.540;18.784;2023-09-07T11:23:33;28.00;52.80
55777;DHT22;54079;44.540;18.784;2023-09-07T11:26:07;28.00;53.30
55777;DHT22;54079;44.540;18.784;2023-09-07T11:28:34;28.20;53.10
55777;DHT22;54079;44.540;18.784;2023-09-07T11:31:00;28.00;52.90
55777;DHT22;54079;44.540;18.784;2023-09-07T11:33:30;27.90;53.80
55777;DHT22;54079;44.540;18.784;2023-09-07T11:35:56;28.10;52.70
55777;DHT22;54079;44.540;18.784;2023-09-07T11:38:22;28.20;51.60
55777;DHT22;54079;44.540;18.784;2023-09-07T11:40:48;27.80;53.30
55777;DHT22;54079;44.540;18.784;2023-09-07T11:43:15;27.90;53.50
55777;DHT22;54079;44.540;18.784;2023-09-07T11:45:43;28.20;52.10
55777;DHT22;54079;44.540;18.784;2023-09-07T11:48:10;28.50;52.20
55777;DHT22;54079;44.540;18.784;2023-09-07T11:50:37;28.20;51.50
55777;DHT22;54079;44.540;18.784;2023-09-07T11:53:04;27.70;52.50
55777;DHT22;54079;44.540;18.784;2023-09-07T11:55:30;27.60;52.90
55777;DHT22;54079;44.540;18.784;2023-09-07T11:57:56;27.60;52.60
55777;DHT22;54079;44.540;18.784;2023-09-07T12:00:23;27.40;53.00
55777;DHT22;54079;44.540;18.784;2023-09-07T12:02:49;27.30;52.20
55777;DHT22;54079;44.540;18.784;2023-09-07T12:05:15;27.40;51.90
55777;DHT22;54079;44.540;18.784;2023-09-07T12:07:42;27.50;52.20
55777;DHT22;54079;44.540;18.784;2023-09-07T12:10:11;27.70;51.80
55777;DHT22;54079;44.540;18.784;2023-09-07T12:12:42;27.80;52.30
55777;DHT22;54079;44.540;18.784;2023-09-07T12:15:09;28.30;51.60
55777;DHT22;54079;44.540;18.784;2023-09-07T12:17:37;28.30;51.40
55777;DHT22;54079;44.540;18.784;2023-09-07T12:20:04;28.40;50.50
55777;DHT22;54079;44.540;18.784;2023-09-07T12:22:36;28.50;49.80
55777;DHT22;54079;44.540;18.784;2023-09-07T12:25:04;28.40;50.80
55777;DHT22;54079;44.540;18.784;2023-09-07T12:27:34;28.10;50.60
55777;DHT22;54079;44.540;18.784;2023-09-07T12:30:01;28.10;50.70
55777;DHT22;54079;44.540;18.784;2023-09-07T12:32:27;27.90;50.50
55777;DHT22;54079;44.540;18.784;2023-09-07T12:34:53;27.80;50.90
55777;DHT22;54079;44.540;18.784;2023-09-07T12:37:19;27.80;50.40
55777;DHT22;54079;44.540;18.784;2023-09-07T12:39:49;27.90;50.60
55777;DHT22;54079;44.540;18.784;2023-09-07T12:42:16;27.80;49.80
55777;DHT22;54079;44.540;18.784;2023-09-07T12:44:41;27.60;49.30
55777;DHT22;54079;44.540;18.784;2023-09-07T12:47:07;27.70;49.90
55777;DHT22;54079;44.540;18.784;2023-09-07T12:49:33;27.70;50.20
55777;DHT22;54079;44.540;18.784;2023-09-07T12:51:59;27.90;49.70
55777;DHT22;54079;44.540;18.784;2023-09-07T12:54:26;27.90;49.70
55777;DHT22;54079;44.540;18.784;2023-09-07T12:56:52;27.80;49.50
55777;DHT22;54079;44.540;18.784;2023-09-07T12:59:18;27.90;50.10
55777;DHT22;54079;44.540;18.784;2023-09-07T13:01:48;27.80;49.30
55777;DHT22;54079;44.540;18.784;2023-09-07T13:04:19;28.10;49.20
55777;DHT22;54079;44.540;18.784;2023-09-07T13:06:45;27.80;49.80
55777;DHT22;54079;44.540;18.784;2023-09-07T13:09:11;27.90;49.60
55777;DHT22;54079;44.540;18.784;2023-09-07T13:11:37;28.00;49.90
55777;DHT22;54079;44.540;18.784;2023-09-07T13:14:04;27.80;48.60
55777;DHT22;54079;44.540;18.784;2023-09-07T13:16:31;27.40;49.40
55777;DHT22;54079;44.540;18.784;2023-09-07T13:18:58;27.50;50.00
55777;DHT22;54079;44.540;18.784;2023-09-07T13:21:24;27.60;49.50
55777;DHT22;54079;44.540;18.784;2023-09-07T13:23:50;27.60;48.60
55777;DHT22;54079;44.540;18.784;2023-09-07T13:26:16;27.50;48.90
55777;DHT22;54079;44.540;18.784;2023-09-07T13:28:42;27.60;49.40
55777;DHT22;54079;44.540;18.784;2023-09-07T13:31:08;27.90;50.00
55777;DHT22;54079;44.540;18.784;2023-09-07T13:33:34;27.60;50.00
55777;DHT22;54079;44.540;18.784;2023-09-07T13:36:00;27.60;51.00
55777;DHT22;54079;44.540;18.784;2023-09-07T13:38:26;27.70;50.90
55777;DHT22;54079;44.540;18.784;2023-09-07T13:40:53;27.70;50.50
55777;DHT22;54079;44.540;18.784;2023-09-07T13:43:18;27.80;50.30
55777;DHT22;54079;44.540;18.784;2023-09-07T13:45:44;27.60;49.70
55777;DHT22;54079;44.540;18.784;2023-09-07T13:48:10;27.60;49.80
55777;DHT22;54079;44.540;18.784;2023-09-07T13:50:36;27.80;50.20
55777;DHT22;54079;44.540;18.784;2023-09-07T13:53:02;27.70;50.10
55777;DHT22;54079;44.540;18.784;2023-09-07T13:55:28;27.50;51.00
55777;DHT22;54079;44.540;18.784;2023-09-07T13:57:54;27.40;50.50
55777;DHT22;54079;44.540;18.784;2023-09-07T14:00:20;27.40;49.30
55777;DHT22;54079;44.540;18.784;2023-09-07T14:02:46;27.70;50.30
55777;DHT22;54079;44.540;18.784;2023-09-07T14:05:12;27.80;49.00
55777;DHT22;54079;44.540;18.784;2023-09-07T14:07:38;27.80;50.00
55777;DHT22;54079;44.540;18.784;2023-09-07T14:10:04;27.90;49.10
55777;DHT22;54079;44.540;18.784;2023-09-07T14:12:30;27.80;49.10
55777;DHT22;54079;44.540;18.784;2023-09-07T14:14:56;27.90;48.40
55777;DHT22;54079;44.540;18.784;2023-09-07T14:17:22;27.80;48.60
55777;DHT22;54079;44.540;18.784;2023-09-07T14:19:48;27.60;49.40
55777;DHT22;54079;44.540;18.784;2023-09-07T14:22:14;27.50;49.80
55777;DHT22;54079;44.540;18.784;2023-09-07T14:24:40;27.60;49.90
55777;DHT22;54079;44.540;18.784;2023-09-07T14:27:06;27.60;50.20
55777;DHT22;54079;44.540;18.784;2023-09-07T14:29:35;27.70;50.20
55777;DHT22;54079;44.540;18.784;2023-09-07T14:32:02;27.60;50.10
55777;DHT22;54079;44.540;18.784;2023-09-07T14:34:28;27.90;50.20
55777;DHT22;54079;44.540;18.784;2023-09-07T14:36:54;28.10;50.10
55777;DHT22;54079;44.540;18.784;2023-09-07T14:39:20;28.00;49.80
55777;DHT22;54079;44.540;18.784;2023-09-07T14:41:50;28.20;49.90
55777;DHT22;54079;44.540;18.784;2023-09-07T14:44:18;28.20;49.90
55777;DHT22;54079;44.540;18.784;2023-09-07T14:46:44;28.30;50.30
55777;DHT22;54079;44.540;18.784;2023-09-07T14:49:12;28.00;50.30
55777;DHT22;54079;44.540;18.784;2023-09-07T14:51:38;27.90;50.70
55777;DHT22;54079;44.540;18.784;2023-09-07T14:54:04;27.70;50.90
55777;DHT22;54079;44.540;18.784;2023-09-07T14:56:30;27.40;51.40
55777;DHT22;54079;44.540;18.784;2023-09-07T14:59:01;27.20;51.60
55777;DHT22;54079;44.540;18.784;2023-09-07T15:01:27;27.20;52.00
55777;DHT22;54079;44.540;18.784;2023-09-07T15:03:53;27.10;52.40
55777;DHT22;54079;44.540;18.784;2023-09-07T15:06:19;27.30;52.10
55777;DHT22;54079;44.540;18.784;2023-09-07T15:08:45;27.30;52.20
55777;DHT22;54079;44.540;18.784;2023-09-07T15:11:11;27.30;52.50
55777;DHT22;54079;44.540;18.784;2023-09-07T15:13:40;27.20;52.80
55777;DHT22;54079;44.540;18.784;2023-09-07T15:16:06;27.00;52.90